sensor_id;sensor_type;location;lat;lon;timestamp;temperature;humidity
29403;DHT22;16382;59.942;30.472;2022-12-18T00:01:24;-4.30;99.90
29403;DHT22;16382;59.942;30.472;2022-12-18T00:03:54;-4.30;99.90
29403;DHT22;16382;59.942;30.472;2022-12-18T00:06:24;-4.30;99.90
29403;DHT22;16382;59.942;30.472;2022-12-18T00:08:53;-4.40;99.90
29403;DHT22;16382;59.942;30.472;2022-12-18T00:11:24;-4.40;99.90
29403;DHT22;16382;59.942;30.472;2022-12-18T00:13:55;-4.30;99.90
29403;DHT22;16382;59.942;30.472;2022-12-18T00:16:25;-4.30;99.90
29403;DHT22;16382;59.942;30.472;2022-12-18T00:18:56;-4.30;99.90
29403;DHT22;16382;59.942;30.472;2022-12-18T00:21:28;-4.30;99.90
29403;DHT22;16382;59.942;30.472;2022-12-18T00:23:57;-4.30;99.90
29403;DHT22;16382;59.942;30.472;2022-12-18T00:26:28;-4.40;99.90
29403;DHT22;16382;59.942;30.472;2022-12-18T00:29:01;-4.40;99.90
29403;DHT22;16382;59.942;30.472;2022-12-18T00:31:30;-4.40;99.90
29403;DHT22;16382;59.942;30.472;2022-12-18T00:34:01;-4.40;99.90
29403;DHT22;16382;59.942;30.472;2022-12-18T00:36:31;-4.40;99.90
29403;DHT22;16382;59.942;30.472;2022-12-18T00:39:00;-4.40;99.90
29403;DHT22;16382;59.942;30.472;2022-12-18T00:41:31;-4.30;99.90
29403;DHT22;16382;59.942;30.472;2022-12-18T00:44:17;-4.40;99.90
29403;DHT22;16382;59.942;30.472;2022-12-18T00:46:46;-4.40;99.90
29403;DHT22;16382;59.942;30.472;2022-12-18T00:49:15;-4.40;99.90
29403;DHT22;16382;59.942;30.472;2022-12-18T00:51:43;-4.40;99.90
29403;DHT22;16382;59.942;30.472;2022-12-18T00:54:11;-4.40;99.90
29403;DHT22;16382;59.942;30.472;2022-12-18T00:56:40;-4.40;99.90
29403;DHT22;16382;59.942;30.472;2022-12-18T00:59:08;-4.40;99.90
29403;DHT22;16382;59.942;30.472;2022-12-18T01:01:38;-4.40;99.90
29403;DHT22;16382;59.942;30.472;2022-12-18T01:04:05;-4.40;99.90
29403;DHT22;16382;59.942;30.472;2022-12-18T01:06:33;-4.40;99.90
29403;DHT22;16382;59.942;30.472;2022-12-18T01:09:01;-4.40;99.90
29403;DHT22;16382;59.942;30.472;2022-12-18T01:11:29;-4.50;99.90
29403;DHT22;16382;59.942;30.472;2022-12-18T01:13:58;-4.60;99.90
29403;DHT22;16382;59.942;30.472;2022-12-18T01:16:26;-4.60;99.90
29403;DHT22;16382;59.942;30.472;2022-12-18T01:18:54;-4.70;99.90
29403;DHT22;16382;59.942;30.472;2022-12-18T01:21:22;-4.70;99.90
29403;DHT22;16382;59.942;30.472;2022-12-18T01:23:54;-4.70;99.90
29403;DHT22;16382;59.942;30.472;2022-12-18T01:26:24;-4.70;99.90
29403;DHT22;16382;59.942;30.472;2022-12-18T01:28:54;-4.60;99.90
29403;DHT22;16382;59.942;30.472;2022-12-18T01:31:25;-4.60;99.90
29403;DHT22;16382;59.942;30.472;2022-12-18T01:33:55;-4.60;99.90
29403;DHT22;16382;59.942;30.472;2022-12-18T01:36:24;-4.60;99.90
29403;DHT22;16382;59.942;30.472;2022-12-18T01:38:54;-4.70;99.90
29403;DHT22;16382;59.942;30.472;2022-12-18T01:41:23;-4.60;99.90
29403;DHT22;16382;59.942;30.472;2022-12-18T01:43:54;-4.60;99.90
29403;DHT22;16382;59.942;30.472;2022-12-18T01:46:26;-4.50;99.90
29403;DHT22;16382;59.942;30.472;2022-12-18T01:48:57;-4.60;99.90
29403;DHT22;16382;59.942;30.472;2022-12-18T01:51:27;-4.70;99.90
29403;DHT22;16382;59.942;30.472;2022-12-18T01:53:57;-4.70;99.90
29403;DHT22;16382;59.942;30.472;2022-12-18T01:56:26;-4.70;99.90
29403;DHT22;16382;59.942;30.472;2022-12-18T01:58:56;-4.70;99.90
29403;DHT22;16382;59.942;30.472;2022-12-18T02:01:28;-4.70;99.90
29403;DHT22;16382;59.942;30.472;2022-12-18T02:04:14;-4.70;99.90
29403;DHT22;16382;59.942;30.472;2022-12-18T02:06:48;-4.70;99.90
29403;DHT22;16382;59.942;30.472;2022-12-18T02:09:23;-4.70;99.90
29403;DHT22;16382;59.942;30.472;2022-12-18T02:12:01;-4.70;99.90
29403;DHT22;16382;59.942;30.472;2022-12-18T02:14:38;-4.60;99.90
29403;DHT22;16382;59.942;30.472;2022-12-18T02:17:12;-4.70;99.90
29403;DHT22;16382;59.942;30.472;2022-12-18T02:19:52;-4.70;99.90
29403;DHT22;16382;59.942;30.472;2022-12-18T02:22:29;-4.70;99.90
29403;DHT22;16382;59.942;30.472;2022-12-18T02:25:13;-4.60;99.90
29403;DHT22;16382;59.942;30.472;2022-12-18T02:27:51;-4.60;99.90
29403;DHT22;16382;59.942;30.472;2022-12-18T02:30:21;-4.50;99.90
29403;DHT22;16382;59.942;30.472;2022-12-18T02:32:51;-4.50;99.90
29403;DHT22;16382;59.942;30.472;2022-12-18T02:35:23;-4.50;99.90
29403;DHT22;16382;59.942;30.472;2022-12-18T02:37:54;-4.50;99.90
29403;DHT22;16382;59.942;30.472;2022-12-18T02:40:24;-4.50;99.90
29403;DHT22;16382;59.942;30.472;2022-12-18T02:42:55;-4.60;99.90
29403;DHT22;16382;59.942;30.472;2022-12-18T02:45:23;-4.70;99.90
29403;DHT22;16382;59.942;30.472;2022-12-18T02:47:52;-4.80;99.90
29403;DHT22;16382;59.942;30.472;2022-12-18T02:50:25;-4.90;99.90
29403;DHT22;16382;59.942;30.472;2022-12-18T02:53:06;-4.90;99.90
29403;DHT22;16382;59.942;30.472;2022-12-18T02:55:53;-5.00;99.90
29403;DHT22;16382;59.942;30.472;2022-12-18T02:58:32;-5.00;99.90
29403;DHT22;16382;59.942;30.472;2022-12-18T03:01:16;-4.90;99.90
29403;DHT22;16382;59.942;30.472;2022-12-18T03:03:52;-4.90;99.90
29403;DHT22;16382;59.942;30.472;2022-12-18T03:06:26;-4.90;99.90
29403;DHT22;16382;59.942;30.472;2022-12-18T03:08:57;-4.80;99.90
29403;DHT22;16382;59.942;30.472;2022-12-18T03:11:32;-4.70;99.90
29403;DHT22;16382;59.942;30.472;2022-12-18T03:14:21;-4.70;99.90
29403;DHT22;16382;59.942;30.472;2022-12-18T03:16:54;-4.60;99.90
29403;DHT22;16382;59.942;30.472;2022-12-18T03:19:26;-4.60;99.90
29403;DHT22;16382;59.942;30.472;2022-12-18T03:22:00;-4.60;99.90
29403;DHT22;16382;59.942;30.472;2022-12-18T03:24:39;-4.60;99.90
29403;DHT22;16382;59.942;30.472;2022-12-18T03:27:10;-4.60;99.90
29403;DHT22;16382;59.942;30.472;2022-12-18T03:29:45;-4.60;99.90
29403;DHT22;16382;59.942;30.472;2022-12-18T03:32:25;-4.60;99.90
29403;DHT22;16382;59.942;30.472;2022-12-18T03:34:59;-4.50;99.90
29403;DHT22;16382;59.942;30.472;2022-12-18T03:37:33;-4.50;99.90
29403;DHT22;16382;59.942;30.472;2022-12-18T03:40:02;-4.40;99.90
29403;DHT22;16382;59.942;30.472;2022-12-18T03:42:37;-4.40;99.90
29403;DHT22;16382;59.942;30.472;2022-12-18T03:45:16;-4.50;99.90
29403;DHT22;16382;59.942;30.472;2022-12-18T03:47:52;-4.50;99.90
29403;DHT22;16382;59.942;30.472;2022-12-18T03:50:33;-4.50;99.90
29403;DHT22;16382;59.942;30.472;2022-12-18T03:53:14;-4.50;99.90
29403;DHT22;16382;59.942;30.472;2022-12-18T03:55:49;-4.60;99.90
29403;DHT22;16382;59.942;30.472;2022-12-18T03:58:20;-4.50;99.90
29403;DHT22;16382;59.942;30.472;2022-12-18T04:01:01;-4.60;99.90
29403;DHT22;16382;59.942;30.472;2022-12-18T04:03:30;-4.60;99.90
29403;DHT22;16382;59.942;30.472;2022-12-18T04:06:00;-4.60;99.90
29403;DHT22;16382;59.942;30.472;2022-12-18T04:08:29;-4.60;99.90
29403;DHT22;16382;59.942;30.472;2022-12-18T04:11:04;-4.60;99.90
29403;DHT22;16382;59.942;30.472;2022-12-18T04:13:35;-4.60;99.90
29403;DHT22;16382;59.942;30.472;2022-12-18T04:16:09;-4.60;99.90
29403;DHT22;16382;59.942;30.472;2022-12-18T04:18:40;-4.60;99.90
29403;DHT22;16382;59.942;30.472;2022-12-18T04:21:09;-4.50;99.90
29403;DHT22;16382;59.942;30.472;2022-12-18T04:23:37;-4.50;99.90
29403;DHT22;16382;59.942;30.472;2022-12-18T04:26:05;-4.50;99.90
29403;DHT22;16382;59.942;30.472;2022-12-18T04:28:48;-4.50;99.90
29403;DHT22;16382;59.942;30.472;2022-12-18T04:31:17;-4.50;99.90
29403;DHT22;16382;59.942;30.472;2022-12-18T04:33:47;-4.40;99.90
29403;DHT22;16382;59.942;30.472;2022-12-18T04:36:14;-4.40;99.90
29403;DHT22;16382;59.942;30.472;2022-12-18T04:38:43;-4.30;99.90
29403;DHT22;16382;59.942;30.472;2022-12-18T04:41:14;-4.30;99.90
29403;DHT22;16382;59.942;30.472;2022-12-18T04:43:45;-4.30;99.90
29403;DHT22;16382;59.942;30.472;2022-12-18T04:46:12;-4.30;99.90
29403;DHT22;16382;59.942;30.472;2022-12-18T04:48:41;-4.30;99.90
29403;DHT22;16382;59.942;30.472;2022-12-18T04:51:09;-4.40;99.90
29403;DHT22;16382;59.942;30.472;2022-12-18T04:53:38;-4.30;99.90
29403;DHT22;16382;59.942;30.472;2022-12-18T04:56:08;-4.30;99.90
29403;DHT22;16382;59.942;30.472;2022-12-18T04:58:38;-4.40;99.90
29403;DHT22;16382;59.942;30.472;2022-12-18T05:01:07;-4.40;99.90
29403;DHT22;16382;59.942;30.472;2022-12-18T05:03:36;-4.50;99.90
29403;DHT22;16382;59.942;30.472;2022-12-18T05:06:06;-4.60;99.90
29403;DHT22;16382;59.942;30.472;2022-12-18T05:08:34;-4.70;99.90
29403;DHT22;16382;59.942;30.472;2022-12-18T05:11:03;-4.70;99.90
29403;DHT22;16382;59.942;30.472;2022-12-18T05:13:32;-4.70;99.90
29403;DHT22;16382;59.942;30.472;2022-12-18T05:16:01;-4.60;99.90
29403;DHT22;16382;59.942;30.472;2022-12-18T05:18:29;-4.60;99.90
29403;DHT22;16382;59.942;30.472;2022-12-18T05:20:56;-4.50;99.90
29403;DHT22;16382;59.942;30.472;2022-12-18T05:23:26;-4.50;99.90
29403;DHT22;16382;59.942;30.472;2022-12-18T05:25:55;-4.50;99.90
29403;DHT22;16382;59.942;30.472;2022-12-18T05:28:24;-4.50;99.90
29403;DHT22;16382;59.942;30.472;2022-12-18T05:30:54;-4.50;99.90
29403;DHT22;16382;59.942;30.472;2022-12-18T05:33:24;-4.50;99.90
29403;DHT22;16382;59.942;30.472;2022-12-18T05:35:54;-4.50;99.90
29403;DHT22;16382;59.942;30.472;2022-12-18T05:38:25;-4.60;99.90
29403;DHT22;16382;59.942;30.472;2022-12-18T05:40:54;-4.60;99.90
29403;DHT22;16382;59.942;30.472;2022-12-18T05:43:23;-4.60;99.90
29403;DHT22;16382;59.942;30.472;2022-12-18T05:45:52;-4.60;99.90
29403;DHT22;16382;59.942;30.472;2022-12-18T05:48:20;-4.60;99.90
29403;DHT22;16382;59.942;30.472;2022-12-18T05:50:48;-4.50;99.90
29403;DHT22;16382;59.942;30.472;2022-12-18T05:53:18;-4.50;99.90
29403;DHT22;16382;59.942;30.472;2022-12-18T05:55:48;-4.60;99.90
29403;DHT22;16382;59.942;30.472;2022-12-18T05:58:16;-4.60;99.90
29403;DHT22;16382;59.942;30.472;2022-12-18T06:00:45;-4.70;99.90
29403;DHT22;16382;59.942;30.472;2022-12-18T06:03:14;-4.80;99.90
29403;DHT22;16382;59.942;30.472;2022-12-18T06:05:44;-4.80;99.90
29403;DHT22;16382;59.942;30.472;2022-12-18T06:08:12;-4.80;99.90
29403;DHT22;16382;59.942;30.472;2022-12-18T06:10:40;-4.80;99.90
29403;DHT22;16382;59.942;30.472;2022-12-18T06:13:12;-4.90;99.90
29403;DHT22;16382;59.942;30.472;2022-12-18T06:15:41;-4.90;99.90
29403;DHT22;16382;59.942;30.472;2022-12-18T06:18:09;-4.90;99.90
29403;DHT22;16382;59.942;30.472;2022-12-18T06:20:36;-4.90;99.90
29403;DHT22;16382;59.942;30.472;2022-12-18T06:23:05;-4.90;99.90
29403;DHT22;16382;59.942;30.472;2022-12-18T06:25:37;-4.90;99.90
29403;DHT22;16382;59.942;30.472;2022-12-18T06:28:05;-4.90;99.90
29403;DHT22;16382;59.942;30.472;2022-12-18T06:30:34;-4.80;99.90
29403;DHT22;16382;59.942;30.472;2022-12-18T06:33:02;-4.80;99.90
29403;DHT22;16382;59.942;30.472;2022-12-18T06:35:29;-4.80;99.90
29403;DHT22;16382;59.942;30.472;2022-12-18T06:37:58;-4.90;99.90
29403;DHT22;16382;59.942;30.472;2022-12-18T06:40:28;-4.90;99.90
29403;DHT22;16382;59.942;30.472;2022-12-18T06:42:56;-4.80;99.90
29403;DHT22;16382;59.942;30.472;2022-12-18T06:45:24;-4.80;99.90
29403;DHT22;16382;59.942;30.472;2022-12-18T06:47:53;-4.90;99.90
29403;DHT22;16382;59.942;30.472;2022-12-18T06:50:21;-4.90;99.90
29403;DHT22;16382;59.942;30.472;2022-12-18T06:52:48;-4.90;99.90
29403;DHT22;16382;59.942;30.472;2022-12-18T06:55:16;-5.00;99.90
29403;DHT22;16382;59.942;30.472;2022-12-18T06:57:44;-5.00;99.90
29403;DHT22;16382;59.942;30.472;2022-12-18T07:00:13;-5.10;99.90
29403;DHT22;16382;59.942;30.472;2022-12-18T07:02:41;-5.20;99.90
29403;DHT22;16382;59.942;30.472;2022-12-18T07:05:10;-5.30;99.90
29403;DHT22;16382;59.942;30.472;2022-12-18T07:07:38;-5.40;99.90
29403;DHT22;16382;59.942;30.472;2022-12-18T07:10:06;-5.50;99.90
29403;DHT22;16382;59.942;30.472;2022-12-18T07:12:35;-5.60;99.90
29403;DHT22;16382;59.942;30.472;2022-12-18T07:15:03;-5.70;99.90
29403;DHT22;16382;59.942;30.472;2022-12-18T07:17:31;-5.70;99.90
29403;DHT22;16382;59.942;30.472;2022-12-18T07:19:58;-5.80;99.90
29403;DHT22;16382;59.942;30.472;2022-12-18T07:22:28;-5.90;99.90
29403;DHT22;16382;59.942;30.472;2022-12-18T07:24:55;-6.00;99.90
29403;DHT22;16382;59.942;30.472;2022-12-18T07:27:23;-6.00;99.90
29403;DHT22;16382;59.942;30.472;2022-12-18T07:29:51;-6.00;99.90
29403;DHT22;16382;59.942;30.472;2022-12-18T07:32:20;-6.00;99.90
29403;DHT22;16382;59.942;30.472;2022-12-18T07:34:50;-6.00;99.90
29403;DHT22;16382;59.942;30.472;2022-12-18T07:37:18;-6.00;99.90
29403;DHT22;16382;59.942;30.472;2022-12-18T07:39:49;-6.00;99.90
29403;DHT22;16382;59.942;30.472;2022-12-18T07:42:20;-6.00;99.90
29403;DHT22;16382;59.942;30.472;2022-12-18T07:44:58;-6.00;99.90
29403;DHT22;16382;59.942;30.472;2022-12-18T07:47:34;-6.00;99.90
29403;DHT22;16382;59.942;30.472;2022-12-18T07:50:03;-6.10;99.90
29403;DHT22;16382;59.942;30.472;2022-12-18T07:52:32;-6.00;99.90
29403;DHT22;16382;59.942;30.472;2022-12-18T07:55:01;-6.10;99.90
29403;DHT22;16382;59.942;30.472;2022-12-18T07:57:35;-6.00;99.90
29403;DHT22;16382;59.942;30.472;2022-12-18T08:00:04;-6.00;99.90
29403;DHT22;16382;59.942;30.472;2022-12-18T08:02:38;-6.00;99.90
29403;DHT22;16382;59.942;30.472;2022-12-18T08:05:06;-5.90;99.90
29403;DHT22;16382;59.942;30.472;2022-12-18T08:07:34;-5.90;99.90
29403;DHT22;16382;59.942;30.472;2022-12-18T08:10:07;-6.00;99.90
29403;DHT22;16382;59.942;30.472;2022-12-18T08:12:35;-5.90;99.90
29403;DHT22;16382;59.942;30.472;2022-12-18T08:15:03;-5.80;99.90
29403;DHT22;16382;59.942;30.472;2022-12-18T08:17:31;-5.80;99.90
29403;DHT22;16382;59.942;30.472;2022-12-18T08:19:59;-5.70;99.90
29403;DHT22;16382;59.942;30.472;2022-12-18T08:22:27;-5.50;99.90
29403;DHT22;16382;59.942;30.472;2022-12-18T08:24:55;-5.40;99.90
29403;DHT22;16382;59.942;30.472;2022-12-18T08:27:24;-5.40;99.90
29403;DHT22;16382;59.942;30.472;2022-12-18T08:29:52;-5.60;99.90
29403;DHT22;16382;59.942;30.472;2022-12-18T08:32:20;-5.60;99.90
29403;DHT22;16382;59.942;30.472;2022-12-18T08:34:48;-5.70;99.90
29403;DHT22;16382;59.942;30.472;2022-12-18T08:37:16;-5.60;99.90
29403;DHT22;16382;59.942;30.472;2022-12-18T08:39:43;-5.60;99.90
29403;DHT22;16382;59.942;30.472;2022-12-18T08:42:11;-5.50;99.90
29403;DHT22;16382;59.942;30.472;2022-12-18T08:44:58;-5.50;99.90
29403;DHT22;16382;59.942;30.472;2022-12-18T08:47:32;-5.50;99.90
29403;DHT22;16382;59.942;30.472;2022-12-18T08:50:12;-5.50;99.90
29403;DHT22;16382;59.942;30.472;2022-12-18T08:52:40;-5.60;99.90
29403;DHT22;16382;59.942;30.472;2022-12-18T08:55:09;-5.70;99.90
29403;DHT22;16382;59.942;30.472;2022-12-18T08:57:37;-5.70;99.90
29403;DHT22;16382;59.942;30.472;2022-12-18T09:00:08;-5.70;99.90
29403;DHT22;16382;59.942;30.472;2022-12-18T09:02:39;-5.70;99.90
29403;DHT22;16382;59.942;30.472;2022-12-18T09:05:09;-5.60;99.90
29403;DHT22;16382;59.942;30.472;2022-12-18T09:07:37;-5.40;99.90
29403;DHT22;16382;59.942;30.472;2022-12-18T09:10:05;-5.30;99.90
29403;DHT22;16382;59.942;30.472;2022-12-18T09:12:33;-5.40;99.90
29403;DHT22;16382;59.942;30.472;2022-12-18T09:15:01;-5.30;99.90
29403;DHT22;16382;59.942;30.472;2022-12-18T09:17:31;-5.30;99.90
29403;DHT22;16382;59.942;30.472;2022-12-18T09:19:58;-5.20;99.90
29403;DHT22;16382;59.942;30.472;2022-12-18T09:22:26;-5.20;99.90
29403;DHT22;16382;59.942;30.472;2022-12-18T09:24:54;-5.30;99.90
29403;DHT22;16382;59.942;30.472;2022-12-18T09:27:21;-5.50;99.90
29403;DHT22;16382;59.942;30.472;2022-12-18T09:29:49;-5.60;99.90
29403;DHT22;16382;59.942;30.472;2022-12-18T09:32:17;-5.70;99.90
29403;DHT22;16382;59.942;30.472;2022-12-18T09:34:46;-5.80;99.90
29403;DHT22;16382;59.942;30.472;2022-12-18T09:37:13;-5.80;99.90
29403;DHT22;16382;59.942;30.472;2022-12-18T09:39:41;-5.80;99.90
29403;DHT22;16382;59.942;30.472;2022-12-18T09:42:12;-5.70;99.90
29403;DHT22;16382;59.942;30.472;2022-12-18T09:44:50;-5.60;99.90
29403;DHT22;16382;59.942;30.472;2022-12-18T09:47:23;-5.50;99.90
29403;DHT22;16382;59.942;30.472;2022-12-18T09:49:56;-5.50;99.90
29403;DHT22;16382;59.942;30.472;2022-12-18T09:52:28;-5.50;99.90
29403;DHT22;16382;59.942;30.472;2022-12-18T09:55:03;-5.40;99.90
29403;DHT22;16382;59.942;30.472;2022-12-18T09:57:39;-5.40;99.90
29403;DHT22;16382;59.942;30.472;2022-12-18T10:00:20;-5.40;99.90
29403;DHT22;16382;59.942;30.472;2022-12-18T10:02:50;-5.30;99.90
29403;DHT22;16382;59.942;30.472;2022-12-18T10:05:28;-5.30;99.90
29403;DHT22;16382;59.942;30.472;2022-12-18T10:08:07;-5.40;99.90
29403;DHT22;16382;59.942;30.472;2022-12-18T10:10:44;-5.40;99.90
29403;DHT22;16382;59.942;30.472;2022-12-18T10:13:25;-5.30;99.90
29403;DHT22;16382;59.942;30.472;2022-12-18T10:16:09;-5.40;99.90
29403;DHT22;16382;59.942;30.472;2022-12-18T10:19:02;-5.40;99.90
29403;DHT22;16382;59.942;30.472;2022-12-18T10:21:42;-5.50;99.90
29403;DHT22;16382;59.942;30.472;2022-12-18T10:24:19;-5.50;99.90
29403;DHT22;16382;59.942;30.472;2022-12-18T10:26:49;-5.50;99.90
29403;DHT22;16382;59.942;30.472;2022-12-18T10:29:24;-5.50;99.90
29403;DHT22;16382;59.942;30.472;2022-12-18T10:31:52;-5.40;99.90
29403;DHT22;16382;59.942;30.472;2022-12-18T10:34:20;-5.40;99.90
29403;DHT22;16382;59.942;30.472;2022-12-18T10:36:51;-5.40;99.90
29403;DHT22;16382;59.942;30.472;2022-12-18T10:39:22;-5.30;99.90
29403;DHT22;16382;59.942;30.472;2022-12-18T10:41:52;-5.30;99.90
29403;DHT22;16382;59.942;30.472;2022-12-18T10:44:39;-5.30;99.90
29403;DHT22;16382;59.942;30.472;2022-12-18T10:47:12;-5.30;99.90
29403;DHT22;16382;59.942;30.472;2022-12-18T10:49:49;-5.30;99.90
29403;DHT22;16382;59.942;30.472;2022-12-18T10:55:20;-5.20;99.90
29403;DHT22;16382;59.942;30.472;2022-12-18T10:57:48;-5.20;99.90
29403;DHT22;16382;59.942;30.472;2022-12-18T11:00:23;-5.10;99.90
29403;DHT22;16382;59.942;30.472;2022-12-18T11:02:54;-5.20;99.90
29403;DHT22;16382;59.942;30.472;2022-12-18T11:05:29;-5.10;99.90
29403;DHT22;16382;59.942;30.472;2022-12-18T11:08:00;-5.20;99.90
29403;DHT22;16382;59.942;30.472;2022-12-18T11:10:31;-5.10;99.90
29403;DHT22;16382;59.942;30.472;2022-12-18T11:13:11;-5.10;99.90
29403;DHT22;16382;59.942;30.472;2022-12-18T11:15:40;-5.10;99.90
29403;DHT22;16382;59.942;30.472;2022-12-18T11:18:16;-5.10;99.90
29403;DHT22;16382;59.942;30.472;2022-12-18T11:20:51;-5.10;99.90
29403;DHT22;16382;59.942;30.472;2022-12-18T11:23:23;-5.20;99.90
29403;DHT22;16382;59.942;30.472;2022-12-18T11:25:53;-5.30;99.90
29403;DHT22;16382;59.942;30.472;2022-12-18T11:28:36;-5.20;99.90
29403;DHT22;16382;59.942;30.472;2022-12-18T11:31:22;-5.30;99.90
29403;DHT22;16382;59.942;30.472;2022-12-18T11:34:00;-5.30;99.90
29403;DHT22;16382;59.942;30.472;2022-12-18T11:36:33;-5.30;99.90
29403;DHT22;16382;59.942;30.472;2022-12-18T11:39:15;-5.40;99.90
29403;DHT22;16382;59.942;30.472;2022-12-18T11:41:50;-5.30;99.90
29403;DHT22;16382;59.942;30.472;2022-12-18T11:44:43;-5.30;99.90
29403;DHT22;16382;59.942;30.472;2022-12-18T11:47:21;-5.30;99.90
29403;DHT22;16382;59.942;30.472;2022-12-18T11:49:55;-5.20;99.90
29403;DHT22;16382;59.942;30.472;2022-12-18T11:52:33;-5.20;99.90
29403;DHT22;16382;59.942;30.472;2022-12-18T11:55:11;-5.20;99.90
29403;DHT22;16382;59.942;30.472;2022-12-18T11:57:48;-5.20;99.90
29403;DHT22;16382;59.942;30.472;2022-12-18T12:00:22;-5.20;99.90
29403;DHT22;16382;59.942;30.472;2022-12-18T12:06:15;-5.10;99.90
29403;DHT22;16382;59.942;30.472;2022-12-18T12:09:03;-5.10;99.90
29403;DHT22;16382;59.942;30.472;2022-12-18T12:11:46;-5.10;99.90
29403;DHT22;16382;59.942;30.472;2022-12-18T12:14:39;-5.10;99.90
29403;DHT22;16382;59.942;30.472;2022-12-18T12:17:18;-5.20;99.90
29403;DHT22;16382;59.942;30.472;2022-12-18T12:19:55;-5.20;99.90
29403;DHT22;16382;59.942;30.472;2022-12-18T12:22:34;-5.30;99.90
29403;DHT22;16382;59.942;30.472;2022-12-18T12:25:29;-5.30;99.90
29403;DHT22;16382;59.942;30.472;2022-12-18T12:28:12;-5.30;99.90
29403;DHT22;16382;59.942;30.472;2022-12-18T12:30:58;-5.30;99.90
29403;DHT22;16382;59.942;30.472;2022-12-18T12:33:39;-5.20;99.90
29403;DHT22;16382;59.942;30.472;2022-12-18T12:36:20;-5.20;99.90
29403;DHT22;16382;59.942;30.472;2022-12-18T12:38:56;-5.20;99.90
29403;DHT22;16382;59.942;30.472;2022-12-18T12:41:27;-5.20;99.90
29403;DHT22;16382;59.942;30.472;2022-12-18T12:44:24;-5.20;99.90
29403;DHT22;16382;59.942;30.472;2022-12-18T12:46:57;-5.20;99.90
29403;DHT22;16382;59.942;30.472;2022-12-18T12:49:28;-5.20;99.90
29403;DHT22;16382;59.942;30.472;2022-12-18T12:52:06;-5.10;99.90
29403;DHT22;16382;59.942;30.472;2022-12-18T12:54:37;-5.10;99.90
29403;DHT22;16382;59.942;30.472;2022-12-18T12:57:08;-5.10;99.90
29403;DHT22;16382;59.942;30.472;2022-12-18T12:59:49;-5.10;99.90
29403;DHT22;16382;59.942;30.472;2022-12-18T13:02:23;-5.10;99.90
29403;DHT22;16382;59.942;30.472;2022-12-18T13:05:00;-5.10;99.90
29403;DHT22;16382;59.942;30.472;2022-12-18T13:07:34;-5.00;99.90
29403;DHT22;16382;59.942;30.472;2022-12-18T13:10:23;-5.00;99.90
29403;DHT22;16382;59.942;30.472;2022-12-18T13:12:55;-5.10;99.90
29403;DHT22;16382;59.942;30.472;2022-12-18T13:15:31;-5.20;99.90
29403;DHT22;16382;59.942;30.472;2022-12-18T13:18:09;-5.30;99.90
29403;DHT22;16382;59.942;30.472;2022-12-18T13:20:42;-5.30;99.90
29403;DHT22;16382;59.942;30.472;2022-12-18T13:23:31;-5.40;99.90
29403;DHT22;16382;59.942;30.472;2022-12-18T13:26:29;-5.50;99.90
29403;DHT22;16382;59.942;30.472;2022-12-18T13:29:01;-5.60;99.90
29403;DHT22;16382;59.942;30.472;2022-12-18T13:38:21;-5.80;99.90
29403;DHT22;16382;59.942;30.472;2022-12-18T13:40:57;-5.80;99.90
29403;DHT22;16382;59.942;30.472;2022-12-18T13:43:45;-5.80;99.90
29403;DHT22;16382;59.942;30.472;2022-12-18T13:46:28;-5.90;99.90
29403;DHT22;16382;59.942;30.472;2022-12-18T13:49:03;-5.90;99.90
29403;DHT22;16382;59.942;30.472;2022-12-18T13:51:34;-6.00;99.90
29403;DHT22;16382;59.942;30.472;2022-12-18T13:54:12;-6.00;99.90
29403;DHT22;16382;59.942;30.472;2022-12-18T13:56:47;-5.90;99.90
29403;DHT22;16382;59.942;30.472;2022-12-18T13:59:19;-5.80;99.90
29403;DHT22;16382;59.942;30.472;2022-12-18T14:01:52;-5.70;99.90
29403;DHT22;16382;59.942;30.472;2022-12-18T14:04:26;-5.60;99.90
29403;DHT22;16382;59.942;30.472;2022-12-18T14:06:57;-5.50;99.90
29403;DHT22;16382;59.942;30.472;2022-12-18T14:09:30;-5.40;99.90
29403;DHT22;16382;59.942;30.472;2022-12-18T14:12:02;-5.30;99.90
29403;DHT22;16382;59.942;30.472;2022-12-18T14:14:49;-5.30;99.90
29403;DHT22;16382;59.942;30.472;2022-12-18T14:17:19;-5.20;99.90
29403;DHT22;16382;59.942;30.472;2022-12-18T14:19:49;-5.20;99.90
29403;DHT22;16382;59.942;30.472;2022-12-18T14:22:19;-5.10;99.90
29403;DHT22;16382;59.942;30.472;2022-12-18T14:25:10;-5.10;99.90
29403;DHT22;16382;59.942;30.472;2022-12-18T14:27:43;-5.10;99.90
29403;DHT22;16382;59.942;30.472;2022-12-18T14:30:32;-5.00;99.90
29403;DHT22;16382;59.942;30.472;2022-12-18T14:33:04;-5.00;99.90
29403;DHT22;16382;59.942;30.472;2022-12-18T14:35:38;-4.90;99.90
29403;DHT22;16382;59.942;30.472;2022-12-18T14:38:24;-4.90;99.90
29403;DHT22;16382;59.942;30.472;2022-12-18T14:40:57;-4.80;99.90
29403;DHT22;16382;59.942;30.472;2022-12-18T14:43:27;-4.80;99.90
29403;DHT22;16382;59.942;30.472;2022-12-18T14:45:55;-4.80;99.90
29403;DHT22;16382;59.942;30.472;2022-12-18T14:48:34;-4.80;99.90
29403;DHT22;16382;59.942;30.472;2022-12-18T14:51:16;-4.80;99.90
29403;DHT22;16382;59.942;30.472;2022-12-18T14:53:51;-4.70;99.90
29403;DHT22;16382;59.942;30.472;2022-12-18T14:56:26;-4.60;99.90
29403;DHT22;16382;59.942;30.472;2022-12-18T14:59:00;-4.60;99.90
29403;DHT22;16382;59.942;30.472;2022-12-18T15:01:34;-4.50;99.90
29403;DHT22;16382;59.942;30.472;2022-12-18T15:04:05;-4.40;99.90
29403;DHT22;16382;59.942;30.472;2022-12-18T15:07:06;-4.40;99.90
29403;DHT22;16382;59.942;30.472;2022-12-18T15:09:38;-4.40;99.90
29403;DHT22;16382;59.942;30.472;2022-12-18T15:12:22;-4.40;99.90
29403;DHT22;16382;59.942;30.472;2022-12-18T15:14:53;-4.30;99.90
29403;DHT22;16382;59.942;30.472;2022-12-18T15:17:22;-4.20;99.90
29403;DHT22;16382;59.942;30.472;2022-12-18T15:19:53;-4.10;99.90
29403;DHT22;16382;59.942;30.472;2022-12-18T15:22:29;-4.00;99.90
29403;DHT22;16382;59.942;30.472;2022-12-18T15:24:58;-3.90;99.90
29403;DHT22;16382;59.942;30.472;2022-12-18T15:27:31;-3.80;99.90
29403;DHT22;16382;59.942;30.472;2022-12-18T15:30:21;-3.60;99.90
29403;DHT22;16382;59.942;30.472;2022-12-18T15:32:50;-3.50;99.90
29403;DHT22;16382;59.942;30.472;2022-12-18T15:35:20;-3.40;99.90
29403;DHT22;16382;59.942;30.472;2022-12-18T15:37:51;-3.40;99.90
29403;DHT22;16382;59.942;30.472;2022-12-18T15:40:20;-3.30;99.90
29403;DHT22;16382;59.942;30.472;2022-12-18T15:42:54;-3.10;99.90
29403;DHT22;16382;59.942;30.472;2022-12-18T15:45:40;-3.10;99.90
29403;DHT22;16382;59.942;30.472;2022-12-18T15:48:18;-2.90;99.90
29403;DHT22;16382;59.942;30.472;2022-12-18T15:50:48;-2.90;99.90
29403;DHT22;16382;59.942;30.472;2022-12-18T15:53:17;-2.90;99.90
29403;DHT22;16382;59.942;30.472;2022-12-18T15:55:45;-2.90;99.90
29403;DHT22;16382;59.942;30.472;2022-12-18T15:58:30;-2.90;99.90
29403;DHT22;16382;59.942;30.472;2022-12-18T16:00:59;-2.80;99.90
29403;DHT22;16382;59.942;30.472;2022-12-18T16:03:27;-2.70;99.90